createdAt,value
2022-12-04T00:02:23.243Z,101473.16
2022-12-04T00:04:49.615Z,101468.25
2022-12-04T00:07:15.798Z,101464.78
2022-12-04T00:09:41.951Z,101472.66
2022-12-04T00:12:08.165Z,101467.09
2022-12-04T00:14:34.506Z,101473.25
2022-12-04T00:17:01.921Z,101475.09
2022-12-04T00:19:28.083Z,101469.59
2022-12-04T00:21:54.208Z,101473.16
2022-12-04T00:24:20.345Z,101471.44
2022-12-04T00:26:46.466Z,101467.75
2022-12-04T00:29:12.633Z,101478.53
2022-12-04T13:15:22.420Z,101273.38
2022-12-04T13:17:53.852Z,101282.63
2022-12-04T13:20:28.764Z,101275.31
2022-12-04T13:23:13.221Z,101272.75
2022-12-04T13:26:10.231Z,101276.00
2022-12-04T13:28:49.156Z,101271.47
2022-12-04T13:31:33.681Z,101270.81
2022-12-04T13:34:26.306Z,101261.88
2022-12-04T13:37:25.656Z,101261.50
2022-12-04T13:40:27.775Z,101264.75
2022-12-04T13:43:25.007Z,101269.25
2022-12-04T13:45:54.670Z,101260.09
2022-12-04T13:48:36.543Z,101251.75
2022-12-04T13:51:15.995Z,101239.25
2022-12-04T13:53:43.909Z,101229.53
2022-12-04T13:56:26.039Z,101217.50
2022-12-04T13:59:06.978Z,101223.63
2022-12-04T14:01:44.773Z,101218.97
2022-12-04T14:04:46.506Z,101207.91
2022-12-04T14:07:37.224Z,101217.50
2022-12-04T14:10:23.509Z,101221.78
2022-12-04T14:12:59.006Z,101222.94
2022-12-04T14:15:29.996Z,101234.16
2022-12-04T14:18:20.338Z,101240.13
2022-12-04T14:21:00.521Z,101240.38
2022-12-04T14:23:35.149Z,101236.97
2022-12-04T14:26:03.251Z,101237.69
2022-12-04T14:28:35.986Z,101227.19
2022-12-04T14:31:18.760Z,101235.44
2022-12-04T14:33:56.953Z,101233.31
2022-12-04T14:36:42.241Z,101237.75
2022-12-04T14:39:15.058Z,101233.38
2022-12-04T14:41:41.938Z,101240.53
2022-12-04T14:44:23.032Z,101232.72
2022-12-04T14:46:52.910Z,101243.09
2022-12-04T14:49:35.903Z,101244.13
2022-12-04T14:52:43.732Z,101251.56
2022-12-04T14:55:19.155Z,101250.75
2022-12-04T14:57:49.593Z,101242.00
2022-12-04T15:00:19.526Z,101229.28
2022-12-04T15:02:48.097Z,101230.94
2022-12-04T15:05:28.830Z,101231.78
2022-12-04T15:08:00.071Z,101243.03
2022-12-04T15:10:48.070Z,101244.72
2022-12-04T15:13:31.951Z,101245.47
2022-12-04T15:16:04.284Z,101246.03
2022-12-04T15:18:32.348Z,101243.47
2022-12-04T15:21:03.035Z,101240.81
2022-12-04T15:23:38.643Z,101243.78
2022-12-04T15:26:10.642Z,101243.03
2022-12-04T15:28:45.330Z,101237.91
2022-12-04T15:31:29.607Z,101237.06
2022-12-04T15:33:59.933Z,101234.25
2022-12-04T15:36:46.622Z,101239.53
2022-12-04T15:39:17.288Z,101245.66
2022-12-04T15:41:43.418Z,101249.22
2022-12-04T15:44:30.593Z,101247.22
2022-12-04T15:47:00.200Z,101237.75
2022-12-04T15:49:31.546Z,101245.47
2022-12-04T15:52:14.387Z,101242.84
2022-12-04T15:54:48.708Z,101240.06
2022-12-04T15:57:22.570Z,101243.47
2022-12-04T15:59:50.700Z,101237.16
2022-12-04T16:02:25.113Z,101233.69
2022-12-04T16:04:51.265Z,101236.38
2022-12-04T16:07:29.358Z,101244.84
2022-12-04T16:10:04.119Z,101239.56
2022-12-04T16:12:31.997Z,101238.97
2022-12-04T16:14:58.502Z,101239.91
2022-12-04T16:17:30.415Z,101238.03
2022-12-04T16:19:57.822Z,101242.03
2022-12-04T16:22:25.177Z,101250.66
2022-12-04T16:24:51.406Z,101243.34
2022-12-04T16:27:22.615Z,101241.47
2022-12-04T16:29:50.129Z,101249.13
2022-12-04T16:32:19.311Z,101250.66
2022-12-04T16:34:45.878Z,101255.03
2022-12-04T16:37:14.040Z,101254.97
2022-12-04T16:39:41.596Z,101247.25
2022-12-04T16:42:18.655Z,101244.72
2022-12-04T16:44:44.941Z,101243.94
2022-12-04T16:47:12.517Z,101253.41
2022-12-04T16:49:39.451Z,101246.94
2022-12-04T16:52:06.279Z,101245.66
2022-12-04T16:54:32.423Z,101240.31
2022-12-04T16:56:58.818Z,101240.56
2022-12-04T16:59:24.938Z,101233.56
2022-12-04T17:01:51.864Z,101224.78
2022-12-04T17:04:18.745Z,101228.53
2022-12-04T17:06:45.328Z,101237.81
2022-12-04T17:09:12.138Z,101236.81
2022-12-04T17:11:38.927Z,101231.75
2022-12-04T17:14:07.485Z,101226.25
2022-12-04T17:16:38.501Z,101227.59
2022-12-04T17:19:05.301Z,101225.28
2022-12-04T17:21:31.488Z,101223.75
2022-12-04T17:23:57.605Z,101223.19
2022-12-04T17:26:23.742Z,101222.06
2022-12-04T17:28:51.007Z,101224.78
2022-12-04T17:31:19.609Z,101225.06
2022-12-04T17:33:45.822Z,101225.13
2022-12-04T17:36:16.222Z,101227.59
2022-12-04T17:38:43.058Z,101219.78
2022-12-04T17:41:10.849Z,101221.22
2022-12-04T17:43:37.012Z,101236.91
2022-12-04T17:46:09.500Z,101241.84
2022-12-04T17:48:35.768Z,101238.06
2022-12-04T17:51:14.982Z,101242.00
2022-12-04T17:53:41.719Z,101238.34
2022-12-04T17:56:12.166Z,101233.66
2022-12-04T17:58:38.809Z,101233.56
2022-12-04T18:01:07.560Z,101229.16
2022-12-04T18:03:34.307Z,101231.78
2022-12-04T18:06:01.536Z,101213.53
2022-12-04T18:08:29.552Z,101217.28
2022-12-04T18:10:57.222Z,101207.56
2022-12-04T18:13:23.391Z,101206.91
2022-12-04T18:15:49.521Z,101210.31
2022-12-04T18:18:15.646Z,101212.84
2022-12-04T18:20:42.391Z,101216.16
2022-12-04T18:23:09.094Z,101217.47
2022-12-04T18:25:35.240Z,101219.34
2022-12-04T18:28:01.432Z,101220.13
2022-12-04T18:30:27.609Z,101221.72
2022-12-04T18:32:58.350Z,101223.25
2022-12-04T18:35:24.618Z,101218.81
2022-12-04T18:37:50.737Z,101219.69
2022-12-04T18:40:16.985Z,101225.47
2022-12-04T18:42:43.153Z,101229.91
2022-12-04T18:45:09.854Z,101221.91
2022-12-04T18:47:36.597Z,101227.34
2022-12-04T18:50:02.904Z,101230.75
2022-12-04T18:52:29.062Z,101229.50
2022-12-04T18:54:55.196Z,101220.44
2022-12-04T18:57:21.328Z,101236.38
2022-12-04T18:59:48.220Z,101234.84
2022-12-04T19:02:14.408Z,101227.00
2022-12-04T19:04:40.665Z,101229.72
2022-12-04T19:07:06.804Z,101236.53
2022-12-04T19:10:09.505Z,101237.56
2022-12-04T19:12:19.028Z,101237.56
2022-12-04T19:14:45.168Z,101231.59
2022-12-04T19:17:11.793Z,101227.09
2022-12-04T19:19:37.949Z,101225.47
2022-12-04T19:22:04.436Z,101229.03
2022-12-04T19:24:30.698Z,101232.38
2022-12-04T19:26:56.908Z,101233.13
2022-12-04T19:29:23.302Z,101230.91
2022-12-04T19:31:51.517Z,101231.78
2022-12-04T19:34:20.857Z,101225.41
2022-12-04T19:36:47.409Z,101234.16
2022-12-04T19:39:13.558Z,101232.28
2022-12-04T19:41:41.450Z,101226.31
2022-12-04T19:44:46.327Z,101228.28
2022-12-04T19:46:55.275Z,101234.16
2022-12-04T19:49:21.612Z,101224.19
2022-12-04T19:51:48.523Z,101225.81
2022-12-04T19:54:15.624Z,101221.47
2022-12-04T19:56:42.852Z,101222.06
2022-12-04T19:59:09.018Z,101225.63
2022-12-04T20:01:36.112Z,101238.00
2022-12-04T20:04:07.142Z,101228.13
2022-12-04T20:06:42.271Z,101233.13
2022-12-04T20:09:12.716Z,101223.53
2022-12-04T20:11:39.267Z,101229.72
2022-12-04T20:14:06.527Z,101231.25
2022-12-04T20:16:33.939Z,101225.97
2022-12-04T20:19:01.973Z,101227.44
2022-12-04T20:21:30.674Z,101221.56
2022-12-04T20:23:58.340Z,101221.66
2022-12-04T20:26:29.941Z,101216.44
2022-12-04T20:28:58.316Z,101212.84
2022-12-04T20:31:27.353Z,101205.03
2022-12-04T20:33:55.488Z,101194.81
2022-12-04T20:36:24.335Z,101199.81
2022-12-04T20:38:52.854Z,101198.88
2022-12-04T20:41:19.189Z,101194.53
2022-12-04T20:43:47.045Z,101186.63
2022-12-04T20:46:22.879Z,101187.66
2022-12-04T20:48:50.273Z,101188.72
2022-12-04T20:51:22.818Z,101182.78
2022-12-04T20:53:52.708Z,101186.97
2022-12-04T20:56:21.935Z,101187.97
2022-12-04T20:58:48.085Z,101193.16
2022-12-04T21:01:17.753Z,101184.56
2022-12-04T21:03:45.120Z,101183.63
2022-12-04T21:06:32.648Z,101196.16
2022-12-04T21:09:02.197Z,101192.41
2022-12-04T21:11:37.140Z,101193.38
2022-12-04T21:14:34.351Z,101187.19
2022-12-04T21:17:01.714Z,101190.88
2022-12-04T21:19:28.027Z,101192.59
2022-12-04T21:21:54.321Z,101199.66
2022-12-04T21:24:23.425Z,101202.47
2022-12-04T21:26:49.615Z,101202.41
2022-12-04T21:29:16.242Z,101203.31
2022-12-04T21:31:42.982Z,101202.97
2022-12-04T21:34:12.139Z,101207.34
2022-12-04T21:36:38.472Z,101202.13
2022-12-04T21:39:05.047Z,101197.78
2022-12-04T21:41:49.901Z,101195.72
2022-12-04T21:44:18.901Z,101187.81
2022-12-04T21:46:46.284Z,101187.81
2022-12-04T21:49:13.779Z,101183.56
2022-12-04T21:51:56.768Z,101189.59
2022-12-04T21:54:23.855Z,101188.72
2022-12-04T21:56:49.982Z,101182.53
2022-12-04T21:59:16.138Z,101184.06
2022-12-04T22:01:42.542Z,101183.38
2022-12-04T22:04:08.737Z,101172.78
2022-12-04T22:06:36.404Z,101176.56
2022-12-04T22:09:07.840Z,101173.91
2022-12-04T22:11:34.042Z,101170.50
2022-12-04T22:14:00.187Z,101174.00
2022-12-04T22:16:30.320Z,101181.00
2022-12-04T22:18:58.324Z,101187.03
2022-12-04T22:21:24.721Z,101177.94
2022-12-04T22:23:57.269Z,101180.56
2022-12-04T22:26:23.718Z,101177.25
2022-12-04T22:28:50.132Z,101180.81
2022-12-04T22:31:19.191Z,101186.69
2022-12-04T22:33:52.274Z,101188.06
2022-12-04T22:36:21.648Z,101181.66
2022-12-04T22:39:08.346Z,101183.34
2022-12-04T22:41:35.277Z,101179.94
2022-12-04T22:44:01.386Z,101177.97
2022-12-04T22:46:27.577Z,101173.13
2022-12-04T22:48:53.764Z,101162.31
2022-12-04T22:51:21.377Z,101167.59
2022-12-04T22:53:50.179Z,101163.25
2022-12-04T22:56:27.965Z,101164.78
2022-12-04T22:58:55.110Z,101164.09
2022-12-04T23:01:24.177Z,101159.66
2022-12-04T23:03:51.621Z,101161.56
2022-12-04T23:06:19.957Z,101154.56
2022-12-04T23:08:46.488Z,101154.38
2022-12-04T23:11:17.503Z,101151.66
2022-12-04T23:13:44.281Z,101151.66
2022-12-04T23:16:14.282Z,101152.53
2022-12-04T23:18:46.149Z,101151.59
2022-12-04T23:21:14.318Z,101151.75
2022-12-04T23:23:42.790Z,101149.28
2022-12-04T23:26:12.209Z,101145.69
2022-12-04T23:28:38.415Z,101144.50
2022-12-04T23:31:05.224Z,101152.19
2022-12-04T23:33:31.960Z,101141.78
2022-12-04T23:35:59.937Z,101136.50
2022-12-04T23:38:26.891Z,101139.06
2022-12-04T23:41:07.084Z,101139.13
2022-12-04T23:43:34.351Z,101133.78
2022-12-04T23:46:02.551Z,101133.78
2022-12-04T23:48:31.958Z,101128.88
2022-12-04T23:50:58.086Z,101132.66
2022-12-04T23:53:24.785Z,101134.19
2022-12-04T23:55:59.233Z,101136.72
2022-12-04T23:58:25.876Z,101133.41
